Time;durP1;ratioP1;P1;durP2;ratioP2;P2;SDS_P1;SDS_P2;PMS_P1;PMS_P2;Temp;Humidity;BMP_temperature;BMP_pressure;BME280_temperature;BME280_humidity;BME280_pressure;Samples;Min_cycle;Max_cycle;Signal;HPM_P1;HPM_P2
2022/03/25 00:00:19;;;;;;;7.10;6.50;;;;;;;;;;5076148;28;20105;-56
2022/03/25 00:02:45;;;;;;;5.55;4.97;;;;;;;;;;5073918;28;20070;-56
2022/03/25 00:05:11;;;;;;;8.30;6.05;;;;;;;;;;5076396;28;20052;-54
2022/03/25 00:07:36;;;;;;;7.75;7.00;;;;;;;;;;5077317;28;20040;-53
2022/03/25 00:10:03;;;;;;;4.80;4.40;;;;;;;;;;5078995;28;20132;-54
2022/03/25 00:12:29;;;;;;;6.32;5.72;;;;;;;;;;5079282;28;20264;-56
2022/03/25 00:14:55;;;;;;;9.88;7.82;;;;;;;;;;5075542;28;20043;-54
2022/03/25 00:17:20;;;;;;;8.10;5.63;;;;;;;;;;5073509;28;20032;-56
2022/03/25 00:19:45;;;;;;;7.35;6.60;;;;;;;;;;5076519;28;20033;-55
2022/03/25 00:22:11;;;;;;;5.72;5.13;;;;;;;;;;5071649;28;20517;-54
2022/03/25 00:24:36;;;;;;;5.45;5.05;;;;;;;;;;5072887;28;20118;-54
2022/03/25 00:27:02;;;;;;;6.15;5.55;;;;;;;;;;5073657;28;20465;-54
2022/03/25 00:29:27;;;;;;;5.25;4.70;;;;;;;;;;5076546;28;20546;-54
2022/03/25 00:31:52;;;;;;;7.00;6.40;;;;;;;;;;5075236;28;20032;-54
2022/03/25 00:34:18;;;;;;;5.28;4.78;;;;;;;;;;5074508;28;20338;-54
2022/03/25 00:36:44;;;;;;;7.18;5.85;;;;;;;;;;5073870;28;20064;-52
2022/03/25 00:39:09;;;;;;;7.97;6.65;;;;;;;;;;5074464;28;20071;-52
2022/03/25 00:41:36;;;;;;;6.18;5.57;;;;;;;;;;5075809;28;20451;-54
2022/03/25 00:44:04;;;;;;;5.72;5.18;;;;;;;;;;5072969;28;20035;-57
2022/03/25 00:46:29;;;;;;;7.15;6.35;;;;;;;;;;5071153;28;20086;-55
2022/03/25 00:48:56;;;;;;;6.22;5.63;;;;;;;;;;5071987;28;20488;-54
2022/03/25 00:51:22;;;;;;;6.18;5.57;;;;;;;;;;5074270;28;20052;-55
2022/03/25 00:53:48;;;;;;;5.95;5.35;;;;;;;;;;5053438;28;20029;-55
2022/03/25 00:56:14;;;;;;;5.20;4.72;;;;;;;;;;5074095;28;20043;-56
2022/03/25 00:58:39;;;;;;;7.20;5.05;;;;;;;;;;5075889;28;20412;-54
2022/03/25 01:01:04;;;;;;;6.40;5.80;;;;;;;;;;5073420;28;20139;-54
2022/03/25 01:03:31;;;;;;;5.63;5.15;;;;;;;;;;5073947;28;20761;-55
2022/03/25 01:05:57;;;;;;;6.13;5.53;;;;;;;;;;5072990;28;20437;-54
2022/03/25 01:08:22;;;;;;;6.43;5.07;;;;;;;;;;5073939;28;20099;-55
2022/03/25 01:10:47;;;;;;;7.07;6.43;;;;;;;;;;5074490;28;20036;-55
2022/03/25 01:13:13;;;;;;;4.78;4.35;;;;;;;;;;5076082;28;20035;-55
2022/03/25 01:15:38;;;;;;;9.73;6.18;;;;;;;;;;5071696;28;20035;-54
2022/03/25 01:18:04;;;;;;;6.25;5.65;;;;;;;;;;5075470;28;20378;-55
2022/03/25 01:20:30;;;;;;;6.07;5.47;;;;;;;;;;5072967;28;20417;-54
2022/03/25 01:22:55;;;;;;;5.43;4.93;;;;;;;;;;5071129;28;20533;-55
2022/03/25 01:25:21;;;;;;;4.90;4.38;;;;;;;;;;5071560;28;20055;-52
2022/03/25 01:27:46;;;;;;;7.40;6.18;;;;;;;;;;5075794;28;20038;-56
2022/03/25 01:30:12;;;;;;;5.95;4.97;;;;;;;;;;5074581;28;20043;-56
2022/03/25 01:32:38;;;;;;;7.75;6.97;;;;;;;;;;5074767;28;20036;-51
2022/03/25 01:35:06;;;;;;;6.10;5.15;;;;;;;;;;5073353;28;20094;-54
2022/03/25 01:37:32;;;;;;;5.95;5.45;;;;;;;;;;5074341;28;20040;-55
2022/03/25 01:39:57;;;;;;;6.72;6.05;;;;;;;;;;5075439;28;20036;-54
2022/03/25 01:42:34;;;;;;;8.65;5.40;;;;;;;;;;5071823;28;20542;-53
2022/03/25 01:45:00;;;;;;;7.97;5.63;;;;;;;;;;5070852;28;20028;-57
2022/03/25 01:47:30;;;;;;;8.05;7.25;;;;;;;;;;5074559;28;20036;-54
2022/03/25 01:50:00;;;;;;;6.82;5.35;;;;;;;;;;5071338;28;20516;-56
2022/03/25 01:52:27;;;;;;;6.63;6.00;;;;;;;;;;5069720;28;20119;-56
2022/03/25 01:54:53;;;;;;;5.65;5.10;;;;;;;;;;5075806;28;20036;-56
2022/03/25 01:57:21;;;;;;;5.65;4.63;;;;;;;;;;5071654;28;20093;-55
2022/03/25 01:59:47;;;;;;;7.55;5.93;;;;;;;;;;5071634;28;20040;-55
2022/03/25 02:02:12;;;;;;;6.22;5.50;;;;;;;;;;5069704;28;20062;-56
2022/03/25 02:04:38;;;;;;;5.80;5.30;;;;;;;;;;5072584;28;20027;-56
2022/03/25 02:07:04;;;;;;;5.93;5.32;;;;;;;;;;5073549;28;20039;-55
2022/03/25 02:09:30;;;;;;;6.55;6.05;;;;;;;;;;5073695;28;20029;-55
2022/03/25 02:11:56;;;;;;;6.28;4.85;;;;;;;;;;5073159;28;20036;-55
2022/03/25 02:14:22;;;;;;;5.55;5.05;;;;;;;;;;5072479;28;20024;-56
2022/03/25 02:16:49;;;;;;;12.57;6.53;;;;;;;;;;5073109;28;20040;-56
2022/03/25 02:19:18;;;;;;;7.10;5.45;;;;;;;;;;5078609;28;20562;-56
2022/03/25 02:21:44;;;;;;;10.07;6.30;;;;;;;;;;5071735;28;20034;-56
2022/03/25 02:24:11;;;;;;;7.07;5.93;;;;;;;;;;5071276;28;20032;-54
2022/03/25 02:26:37;;;;;;;7.80;6.93;;;;;;;;;;5075086;28;20024;-55
2022/03/25 02:29:04;;;;;;;6.90;6.20;;;;;;;;;;5072495;28;20050;-56
2022/03/25 02:31:30;;;;;;;6.25;5.60;;;;;;;;;;5058167;28;20043;-56
2022/03/25 02:33:58;;;;;;;6.93;6.28;;;;;;;;;;5075116;28;20052;-54
2022/03/25 02:36:24;;;;;;;5.55;5.10;;;;;;;;;;5059583;28;20059;-54
2022/03/25 02:38:49;;;;;;;6.38;5.78;;;;;;;;;;5075400;28;20466;-55
2022/03/25 02:41:15;;;;;;;6.88;5.70;;;;;;;;;;5070084;28;20060;-56
2022/03/25 02:43:40;;;;;;;6.72;5.90;;;;;;;;;;5075595;28;20026;-54
2022/03/25 02:46:06;;;;;;;7.20;6.25;;;;;;;;;;5070958;28;20047;-53
2022/03/25 02:48:32;;;;;;;6.88;6.22;;;;;;;;;;5073081;28;20104;-55
2022/03/25 02:50:58;;;;;;;10.77;5.55;;;;;;;;;;5075848;28;20040;-53
2022/03/25 02:53:24;;;;;;;6.55;5.55;;;;;;;;;;5072529;28;20024;-55
2022/03/25 02:55:49;;;;;;;6.63;6.05;;;;;;;;;;5073221;28;20417;-56
2022/03/25 02:58:16;;;;;;;10.23;5.88;;;;;;;;;;5074118;28;20029;-55
2022/03/25 03:00:42;;;;;;;7.90;5.65;;;;;;;;;;5072845;28;20032;-55
2022/03/25 03:03:08;;;;;;;10.75;6.25;;;;;;;;;;5073633;28;20036;-56
2022/03/25 03:05:34;;;;;;;10.27;9.13;;;;;;;;;;5071963;28;20119;-56
2022/03/25 03:07:59;;;;;;;6.47;5.88;;;;;;;;;;5072758;28;20111;-56
2022/03/25 03:10:25;;;;;;;6.68;5.93;;;;;;;;;;5070576;28;20028;-56
2022/03/25 03:12:52;;;;;;;7.38;6.68;;;;;;;;;;5069990;28;20040;-54
2022/03/25 03:15:18;;;;;;;6.38;5.78;;;;;;;;;;5071328;28;20478;-55
2022/03/25 03:17:48;;;;;;;6.10;5.53;;;;;;;;;;5073839;28;20591;-54
2022/03/25 03:20:15;;;;;;;6.82;5.03;;;;;;;;;;5072785;28;20450;-55
2022/03/25 03:22:41;;;;;;;5.38;4.88;;;;;;;;;;5071582;28;20036;-55
2022/03/25 03:25:07;;;;;;;5.80;5.18;;;;;;;;;;5070745;28;20526;-54
2022/03/25 03:27:32;;;;;;;5.63;4.90;;;;;;;;;;5071291;28;20036;-53
2022/03/25 03:29:58;;;;;;;7.20;6.22;;;;;;;;;;5072363;28;20111;-55
2022/03/25 03:32:25;;;;;;;5.57;5.07;;;;;;;;;;5068490;28;20086;-56
2022/03/25 03:34:52;;;;;;;5.82;5.32;;;;;;;;;;5069594;28;20839;-55
2022/03/25 03:37:17;;;;;;;5.72;5.10;;;;;;;;;;5070277;28;20242;-56
2022/03/25 03:39:43;;;;;;;7.45;6.60;;;;;;;;;;5069401;28;20465;-55
2022/03/25 03:42:08;;;;;;;8.82;6.90;;;;;;;;;;5071208;28;20040;-56
2022/03/25 03:44:36;;;;;;;6.65;6.05;;;;;;;;;;5073001;28;21223;-55
2022/03/25 03:47:03;;;;;;;6.15;5.55;;;;;;;;;;5072896;28;20083;-55
2022/03/25 03:49:28;;;;;;;6.00;5.13;;;;;;;;;;5073045;28;20101;-55
2022/03/25 03:51:54;;;;;;;6.15;5.55;;;;;;;;;;5073294;28;20556;-55
2022/03/25 03:54:19;;;;;;;6.75;6.15;;;;;;;;;;5072281;28;20036;-54
2022/03/25 03:56:44;;;;;;;6.15;5.63;;;;;;;;;;5072719;28;20043;-55
2022/03/25 03:59:10;;;;;;;9.10;5.47;;;;;;;;;;5069921;28;20077;-54
2022/03/25 04:01:35;;;;;;;34.80;5.88;;;;;;;;;;5074749;28;20457;-56
2022/03/25 04:04:01;;;;;;;6.32;5.38;;;;;;;;;;5072900;28;20028;-54
2022/03/25 04:06:27;;;;;;;6.88;5.50;;;;;;;;;;5075022;28;20487;-54
2022/03/25 04:08:52;;;;;;;6.95;5.15;;;;;;;;;;5076980;28;20032;-55
2022/03/25 04:11:18;;;;;;;8.23;5.97;;;;;;;;;;5073640;28;20038;-56
2022/03/25 04:13:45;;;;;;;6.00;4.93;;;;;;;;;;5075685;28;20361;-56
2022/03/25 04:16:11;;;;;;;4.50;3.70;;;;;;;;;;5073489;28;20105;-54
2022/03/25 04:18:37;;;;;;;6.78;6.13;;;;;;;;;;5072376;28;20064;-55
2022/03/25 04:21:03;;;;;;;7.47;5.40;;;;;;;;;;5074140;28;20067;-57
2022/03/25 04:23:28;;;;;;;7.35;6.25;;;;;;;;;;5076453;28;20113;-55
2022/03/25 04:25:54;;;;;;;6.47;5.88;;;;;;;;;;5073219;28;20526;-56
2022/03/25 04:28:19;;;;;;;8.75;5.38;;;;;;;;;;5077165;28;20106;-56
2022/03/25 04:30:45;;;;;;;34.13;5.85;;;;;;;;;;5076320;28;20530;-55
2022/03/25 04:33:10;;;;;;;5.07;4.57;;;;;;;;;;5071982;28;20043;-54
2022/03/25 04:35:36;;;;;;;6.72;6.07;;;;;;;;;;5073442;28;20343;-53
2022/03/25 04:38:02;;;;;;;7.75;5.80;;;;;;;;;;5071396;28;20065;-54
2022/03/25 04:40:29;;;;;;;6.43;5.82;;;;;;;;;;5073486;28;20033;-55
2022/03/25 04:42:56;;;;;;;6.72;5.40;;;;;;;;;;5075442;28;20148;-54
2022/03/25 04:45:23;;;;;;;5.95;5.45;;;;;;;;;;5068260;28;20032;-57
2022/03/25 04:47:49;;;;;;;5.13;4.72;;;;;;;;;;5071079;28;20508;-59
2022/03/25 04:50:14;;;;;;;5.55;5.03;;;;;;;;;;5072321;28;20496;-57
2022/03/25 04:52:40;;;;;;;5.75;5.25;;;;;;;;;;5076979;28;20028;-58
2022/03/25 04:55:06;;;;;;;6.32;5.18;;;;;;;;;;5075113;28;20050;-57
2022/03/25 04:57:31;;;;;;;8.55;6.35;;;;;;;;;;5070755;28;20036;-57
2022/03/25 04:59:56;;;;;;;5.85;5.35;;;;;;;;;;5067112;28;20115;-58
2022/03/25 05:02:22;;;;;;;11.57;5.65;;;;;;;;;;5075907;28;20070;-58
2022/03/25 05:04:48;;;;;;;6.55;5.85;;;;;;;;;;5075695;28;20464;-58
2022/03/25 05:07:17;;;;;;;8.88;7.88;;;;;;;;;;5074119;28;20023;-57
2022/03/25 05:09:43;;;;;;;5.47;4.88;;;;;;;;;;5073637;28;20031;-57
2022/03/25 05:12:09;;;;;;;4.63;4.03;;;;;;;;;;5075510;28;20036;-57
2022/03/25 05:14:35;;;;;;;5.50;4.97;;;;;;;;;;5075068;28;20517;-57
2022/03/25 05:17:00;;;;;;;5.68;5.18;;;;;;;;;;5073917;28;20036;-57
2022/03/25 05:19:26;;;;;;;7.47;6.75;;;;;;;;;;5075472;28;20258;-57
2022/03/25 05:21:51;;;;;;;5.68;5.15;;;;;;;;;;5075345;28;20042;-57
2022/03/25 05:24:17;;;;;;;5.70;5.00;;;;;;;;;;5068816;28;20119;-57
2022/03/25 05:26:42;;;;;;;5.25;4.75;;;;;;;;;;5072865;28;20028;-57
2022/03/25 05:29:09;;;;;;;6.57;5.97;;;;;;;;;;5074142;28;20039;-57
2022/03/25 05:31:36;;;;;;;9.20;5.18;;;;;;;;;;5056545;28;20124;-58
2022/03/25 05:34:04;;;;;;;7.07;6.18;;;;;;;;;;5077228;28;20699;-58
2022/03/25 05:36:31;;;;;;;8.00;4.90;;;;;;;;;;5074766;28;20027;-58
2022/03/25 05:38:57;;;;;;;5.47;4.97;;;;;;;;;;5058169;28;20040;-58
2022/03/25 05:41:24;;;;;;;5.05;4.55;;;;;;;;;;5065349;28;20078;-58
2022/03/25 05:43:50;;;;;;;5.68;5.18;;;;;;;;;;5068861;28;20043;-58
2022/03/25 05:46:16;;;;;;;4.47;4.07;;;;;;;;;;5065311;28;20028;-58
2022/03/25 05:48:42;;;;;;;8.07;5.40;;;;;;;;;;5066625;28;20043;-58
2022/03/25 05:51:07;;;;;;;5.68;5.07;;;;;;;;;;5069112;28;20036;-58
2022/03/25 05:53:33;;;;;;;6.05;5.47;;;;;;;;;;5064679;28;20525;-58
2022/03/25 05:55:59;;;;;;;5.65;5.15;;;;;;;;;;5066810;28;20036;-58
2022/03/25 05:58:25;;;;;;;6.07;5.25;;;;;;;;;;5070302;28;20074;-59
2022/03/25 06:00:51;;;;;;;6.55;5.00;;;;;;;;;;5066362;28;20032;-59
2022/03/25 06:03:17;;;;;;;6.15;5.10;;;;;;;;;;5070048;28;20038;-57
2022/03/25 06:05:42;;;;;;;14.15;6.53;;;;;;;;;;5065536;28;20036;-57
2022/03/25 06:08:07;;;;;;;7.63;5.65;;;;;;;;;;5069236;28;20055;-59
2022/03/25 06:10:33;;;;;;;5.53;5.00;;;;;;;;;;5067662;28;20028;-56
2022/03/25 06:12:58;;;;;;;8.80;5.65;;;;;;;;;;5065338;28;20024;-57
2022/03/25 06:15:24;;;;;;;3.95;3.55;;;;;;;;;;5070630;28;20036;-56
2022/03/25 06:17:51;;;;;;;9.07;5.05;;;;;;;;;;5070071;28;20066;-56
2022/03/25 06:20:18;;;;;;;6.32;5.72;;;;;;;;;;5070569;28;20029;-55
2022/03/25 06:22:44;;;;;;;5.25;4.75;;;;;;;;;;5068526;28;20418;-55
2022/03/25 06:25:11;;;;;;;6.65;5.40;;;;;;;;;;5072284;28;20067;-56
2022/03/25 06:27:54;;;;;;;7.65;5.53;;;;;;;;;;5077608;28;20119;-55
2022/03/25 06:30:21;;;;;;;10.00;5.70;;;;;;;;;;5068521;28;20562;-54
2022/03/25 06:32:47;;;;;;;6.45;5.85;;;;;;;;;;5058903;28;20395;-54
2022/03/25 06:35:14;;;;;;;7.18;5.28;;;;;;;;;;5069120;28;20024;-54
2022/03/25 06:37:40;;;;;;;6.63;5.93;;;;;;;;;;5064451;28;20047;-55
2022/03/25 06:40:07;;;;;;;9.95;6.28;;;;;;;;;;5065546;28;20514;-54
2022/03/25 06:42:39;;;;;;;8.07;6.30;;;;;;;;;;5071196;28;20472;-53
2022/03/25 06:45:07;;;;;;;6.07;5.05;;;;;;;;;;5067185;28;20036;-57
2022/03/25 06:47:33;;;;;;;5.57;5.05;;;;;;;;;;5066211;28;20343;-57
2022/03/25 06:49:59;;;;;;;11.38;7.68;;;;;;;;;;5068390;28;20035;-57
2022/03/25 06:52:24;;;;;;;6.43;5.72;;;;;;;;;;5064428;28;20028;-56
2022/03/25 06:54:50;;;;;;;6.78;5.95;;;;;;;;;;5068621;28;20036;-57
2022/03/25 06:57:16;;;;;;;6.35;5.75;;;;;;;;;;5075961;28;20031;-56
2022/03/25 06:59:42;;;;;;;5.72;5.20;;;;;;;;;;5065332;28;20131;-57
2022/03/25 07:02:11;;;;;;;8.05;5.55;;;;;;;;;;5067854;28;20036;-57
2022/03/25 07:04:38;;;;;;;6.63;5.82;;;;;;;;;;5071266;28;20036;-55
2022/03/25 07:07:05;;;;;;;9.98;6.72;;;;;;;;;;5072142;28;20028;-52
2022/03/25 07:09:31;;;;;;;6.95;6.35;;;;;;;;;;5068942;28;20724;-55
2022/03/25 07:11:58;;;;;;;6.95;6.25;;;;;;;;;;5066573;28;20035;-57
2022/03/25 07:14:23;;;;;;;7.88;6.43;;;;;;;;;;5066954;28;20052;-57
2022/03/25 07:16:48;;;;;;;8.38;7.47;;;;;;;;;;5068153;28;20121;-57
2022/03/25 07:19:14;;;;;;;7.20;6.50;;;;;;;;;;5063489;28;20503;-52
2022/03/25 07:21:39;;;;;;;8.77;7.97;;;;;;;;;;5068743;28;20056;-55
2022/03/25 07:24:05;;;;;;;11.60;8.98;;;;;;;;;;5067065;28;20410;-56
2022/03/25 07:26:31;;;;;;;9.35;8.45;;;;;;;;;;5067380;28;20032;-56
2022/03/25 07:28:56;;;;;;;9.15;8.10;;;;;;;;;;5063695;28;20040;-54
2022/03/25 07:31:22;;;;;;;6.63;6.03;;;;;;;;;;5067482;28;20579;-55
2022/03/25 07:33:48;;;;;;;15.95;7.53;;;;;;;;;;5070436;28;20036;-56
2022/03/25 07:36:13;;;;;;;7.88;7.15;;;;;;;;;;5065113;28;20453;-56
2022/03/25 07:38:38;;;;;;;9.40;8.50;;;;;;;;;;5067650;28;20610;-55
2022/03/25 07:41:04;;;;;;;8.15;7.38;;;;;;;;;;5072564;28;20044;-57
2022/03/25 07:43:30;;;;;;;6.70;6.10;;;;;;;;;;5074434;28;20081;-55
2022/03/25 07:45:56;;;;;;;9.85;7.95;;;;;;;;;;5071119;28;20039;-55
2022/03/25 07:48:22;;;;;;;7.15;6.45;;;;;;;;;;5070477;28;20478;-56
2022/03/25 07:50:47;;;;;;;12.68;9.43;;;;;;;;;;5073633;28;20494;-56
2022/03/25 07:53:13;;;;;;;10.25;9.20;;;;;;;;;;5073452;28;20053;-56
2022/03/25 07:55:38;;;;;;;8.38;7.20;;;;;;;;;;5073211;28;20617;-55
2022/03/25 07:58:04;;;;;;;9.45;7.20;;;;;;;;;;5071177;28;20024;-55
2022/03/25 08:00:29;;;;;;;11.05;9.02;;;;;;;;;;5069885;28;20426;-54
2022/03/25 08:02:55;;;;;;;10.13;8.20;;;;;;;;;;5071953;28;20033;-55
2022/03/25 08:05:23;;;;;;;11.13;8.65;;;;;;;;;;5053354;28;20070;-55
2022/03/25 08:07:53;;;;;;;10.55;8.07;;;;;;;;;;5073039;28;20036;-56
2022/03/25 08:10:21;;;;;;;11.32;7.13;;;;;;;;;;5075164;28;20103;-56
2022/03/25 08:12:48;;;;;;;9.90;8.82;;;;;;;;;;5070905;28;20035;-55
2022/03/25 08:15:13;;;;;;;19.48;14.45;;;;;;;;;;5074063;28;20107;-56
2022/03/25 08:17:46;;;;;;;12.38;10.35;;;;;;;;;;5071125;28;20143;-55
2022/03/25 08:20:12;;;;;;;14.85;10.18;;;;;;;;;;5072869;28;20358;-56
2022/03/25 08:22:37;;;;;;;13.15;8.85;;;;;;;;;;5072515;28;20043;-57
2022/03/25 08:27:50;;;;;;;12.27;10.20;;;;;;;;;;5068671;28;20060;-56
2022/03/25 08:30:15;;;;;;;9.15;8.35;;;;;;;;;;5073611;28;20039;-54
2022/03/25 08:32:41;;;;;;;10.60;9.55;;;;;;;;;;5076473;28;20396;-55
2022/03/25 08:35:07;;;;;;;12.45;9.48;;;;;;;;;;5074034;28;20063;-54
2022/03/25 08:37:33;;;;;;;12.15;8.95;;;;;;;;;;5070165;28;20033;-55
2022/03/25 08:39:58;;;;;;;12.25;9.25;;;;;;;;;;5070668;28;20119;-54
2022/03/25 08:42:23;;;;;;;10.70;9.70;;;;;;;;;;5073104;28;20504;-56
2022/03/25 08:44:49;;;;;;;11.27;9.30;;;;;;;;;;5069097;28;20521;-56
2022/03/25 08:47:14;;;;;;;14.27;11.45;;;;;;;;;;5072537;28;20598;-53
2022/03/25 08:49:41;;;;;;;10.70;9.73;;;;;;;;;;5072793;28;20430;-56
2022/03/25 08:52:06;;;;;;;12.27;11.00;;;;;;;;;;5067443;28;20047;-53
2022/03/25 08:54:32;;;;;;;11.73;10.73;;;;;;;;;;5070939;28;20561;-53
2022/03/25 08:56:58;;;;;;;9.73;8.88;;;;;;;;;;5070650;28;20028;-53
2022/03/25 08:59:23;;;;;;;14.77;10.73;;;;;;;;;;5071328;28;20093;-56
2022/03/25 09:01:48;;;;;;;11.15;10.15;;;;;;;;;;5067711;28;20040;-57
2022/03/25 09:04:14;;;;;;;10.55;9.43;;;;;;;;;;5069641;28;20051;-57
2022/03/25 09:06:39;;;;;;;11.00;9.57;;;;;;;;;;5066090;28;20759;-57
2022/03/25 09:09:05;;;;;;;11.52;10.23;;;;;;;;;;5069195;28;20422;-56
2022/03/25 09:11:31;;;;;;;11.60;10.55;;;;;;;;;;5070874;28;20416;-56
2022/03/25 09:13:57;;;;;;;11.98;10.73;;;;;;;;;;5046778;28;20033;-57
2022/03/25 09:16:22;;;;;;;13.60;11.07;;;;;;;;;;5071906;28;20517;-55
2022/03/25 09:18:49;;;;;;;16.08;12.57;;;;;;;;;;5069755;28;20040;-54
2022/03/25 09:21:14;;;;;;;12.32;11.20;;;;;;;;;;5073840;28;20033;-55
2022/03/25 09:23:40;;;;;;;12.00;9.95;;;;;;;;;;5071992;28;20044;-58
2022/03/25 09:26:05;;;;;;;13.55;12.15;;;;;;;;;;5070905;28;20126;-58
2022/03/25 09:28:31;;;;;;;11.70;10.60;;;;;;;;;;5074342;28;20032;-56
2022/03/25 09:30:56;;;;;;;10.38;9.38;;;;;;;;;;5072479;28;20414;-56
2022/03/25 09:33:22;;;;;;;15.00;11.38;;;;;;;;;;5071420;28;20751;-55
2022/03/25 09:35:47;;;;;;;9.75;8.85;;;;;;;;;;5050257;28;20024;-54
2022/03/25 09:38:13;;;;;;;12.50;11.30;;;;;;;;;;5070756;28;20042;-54
2022/03/25 09:40:40;;;;;;;13.70;10.40;;;;;;;;;;5068663;28;20039;-52
2022/03/25 09:43:05;;;;;;;11.40;10.32;;;;;;;;;;5073498;28;20046;-54
2022/03/25 09:45:33;;;;;;;9.88;8.88;;;;;;;;;;5075092;28;20508;-54
2022/03/25 09:47:59;;;;;;;12.00;10.85;;;;;;;;;;5072257;28;20098;-57
2022/03/25 09:50:26;;;;;;;11.43;10.30;;;;;;;;;;5070675;28;20036;-56
2022/03/25 09:52:53;;;;;;;12.00;10.65;;;;;;;;;;5071471;28;20056;-56
2022/03/25 09:55:19;;;;;;;10.85;9.50;;;;;;;;;;5071484;28;20032;-55
2022/03/25 09:57:45;;;;;;;10.63;9.80;;;;;;;;;;5067776;28;20523;-56
2022/03/25 10:00:17;;;;;;;13.48;11.13;;;;;;;;;;5072301;28;20028;-56
2022/03/25 10:02:43;;;;;;;12.25;10.55;;;;;;;;;;5074818;28;20039;-56
2022/03/25 10:05:17;;;;;;;9.00;8.20;;;;;;;;;;5070059;28;20479;-55
2022/03/25 10:07:50;;;;;;;11.63;10.40;;;;;;;;;;5071230;28;20430;-55
2022/03/25 10:10:44;;;;;;;12.43;11.23;;;;;;;;;;5071430;28;20025;-55
2022/03/25 10:13:19;;;;;;;11.45;9.93;;;;;;;;;;5068754;28;20045;-56
2022/03/25 10:15:45;;;;;;;10.90;9.23;;;;;;;;;;5070039;28;20147;-57
2022/03/25 10:18:10;;;;;;;10.65;9.63;;;;;;;;;;5066204;28;20672;-57
2022/03/25 10:20:41;;;;;;;12.27;9.75;;;;;;;;;;5077367;28;20029;-57
2022/03/25 10:23:17;;;;;;;11.65;10.45;;;;;;;;;;5065751;28;20033;-55
2022/03/25 10:25:43;;;;;;;14.30;12.98;;;;;;;;;;5059183;28;20456;-56
2022/03/25 10:28:39;;;;;;;12.48;11.35;;;;;;;;;;5062498;28;20131;-57
2022/03/25 10:31:17;;;;;;;11.50;10.50;;;;;;;;;;5061889;28;20031;-57
2022/03/25 10:33:57;;;;;;;15.23;9.80;;;;;;;;;;5053334;28;20041;-58
2022/03/25 10:36:25;;;;;;;15.43;14.00;;;;;;;;;;5061831;28;20496;-56
2022/03/25 10:38:54;;;;;;;14.65;10.77;;;;;;;;;;5064396;28;20051;-54
2022/03/25 10:41:22;;;;;;;12.20;11.20;;;;;;;;;;5064280;28;20047;-54
2022/03/25 10:43:52;;;;;;;14.98;13.68;;;;;;;;;;5067235;28;20140;-55
2022/03/25 10:46:31;;;;;;;11.15;10.20;;;;;;;;;;5064043;28;20062;-56
2022/03/25 10:48:58;;;;;;;13.90;12.48;;;;;;;;;;5064799;28;20044;-55
2022/03/25 10:51:24;;;;;;;15.00;13.68;;;;;;;;;;5063606;28;20031;-57
2022/03/25 10:54:00;;;;;;;15.45;14.10;;;;;;;;;;5064517;28;20140;-53
2022/03/25 10:56:26;;;;;;;13.77;12.23;;;;;;;;;;5065014;28;20033;-55
2022/03/25 10:58:56;;;;;;;15.40;14.10;;;;;;;;;;5063399;28;20447;-54
2022/03/25 11:01:22;;;;;;;16.33;14.20;;;;;;;;;;5061606;28;20327;-55
2022/03/25 11:03:50;;;;;;;16.13;14.57;;;;;;;;;;5073385;28;20043;-56
2022/03/25 11:06:17;;;;;;;15.73;14.43;;;;;;;;;;5067182;28;20062;-52
2022/03/25 11:08:43;;;;;;;15.88;14.57;;;;;;;;;;5069675;28;20084;-55
2022/03/25 11:11:09;;;;;;;14.35;13.25;;;;;;;;;;5066174;28;20596;-55
2022/03/25 11:13:35;;;;;;;14.43;13.23;;;;;;;;;;5071011;28;20029;-54
2022/03/25 11:16:02;;;;;;;15.43;14.00;;;;;;;;;;5069334;28;21407;-54
2022/03/25 11:18:28;;;;;;;20.15;15.38;;;;;;;;;;5068807;28;20028;-56
2022/03/25 11:20:58;;;;;;;16.40;15.07;;;;;;;;;;5067280;28;20082;-54
2022/03/25 11:23:26;;;;;;;16.73;13.65;;;;;;;;;;5067578;28;20432;-54
2022/03/25 11:25:56;;;;;;;16.50;13.73;;;;;;;;;;5073551;28;20040;-56
2022/03/25 11:28:31;;;;;;;14.90;13.48;;;;;;;;;;5070057;28;20056;-55
2022/03/25 11:30:59;;;;;;;15.80;14.60;;;;;;;;;;5065236;28;20051;-58
2022/03/25 11:33:24;;;;;;;16.00;14.60;;;;;;;;;;5062784;28;20039;-57
2022/03/25 11:36:10;;;;;;;14.38;13.05;;;;;;;;;;5067383;28;20540;-55
2022/03/25 11:38:36;;;;;;;15.18;13.88;;;;;;;;;;5073857;28;20039;-54
2022/03/25 11:41:20;;;;;;;16.38;14.95;;;;;;;;;;5069585;28;20485;-56
2022/03/25 11:44:15;;;;;;;16.70;14.98;;;;;;;;;;5068883;28;20075;-56
2022/03/25 11:46:58;;;;;;;16.00;14.38;;;;;;;;;;5070023;28;20461;-56
2022/03/25 11:49:27;;;;;;;18.17;15.73;;;;;;;;;;5068457;28;20101;-57
2022/03/25 11:51:53;;;;;;;15.18;13.82;;;;;;;;;;5065627;28;20135;-55
2022/03/25 11:54:40;;;;;;;16.20;14.75;;;;;;;;;;5070178;28;20091;-57
2022/03/25 11:57:27;;;;;;;16.90;15.23;;;;;;;;;;5072270;28;20053;-56
2022/03/25 11:59:59;;;;;;;16.80;15.10;;;;;;;;;;5072155;28;20045;-53
2022/03/25 12:02:26;;;;;;;15.00;12.45;;;;;;;;;;5066221;28;20028;-55
2022/03/25 12:04:52;;;;;;;15.30;14.00;;;;;;;;;;5070305;28;20040;-56
2022/03/25 12:07:18;;;;;;;12.60;11.57;;;;;;;;;;5070478;28;20040;-54
2022/03/25 12:09:46;;;;;;;14.25;12.90;;;;;;;;;;5073820;28;20170;-55
2022/03/25 12:12:13;;;;;;;13.57;12.50;;;;;;;;;;5068727;28;20077;-56
2022/03/25 12:15:11;;;;;;;16.90;15.40;;;;;;;;;;5068289;28;20039;-56
2022/03/25 12:17:38;;;;;;;14.57;13.25;;;;;;;;;;5073518;28;20380;-53
2022/03/25 12:20:04;;;;;;;13.75;12.48;;;;;;;;;;5072588;28;20046;-54
2022/03/25 12:22:36;;;;;;;17.15;15.27;;;;;;;;;;5070865;28;20112;-55
2022/03/25 12:25:14;;;;;;;13.73;12.43;;;;;;;;;;5076206;28;20382;-54
2022/03/25 12:27:40;;;;;;;15.85;14.45;;;;;;;;;;5075746;28;20062;-54
2022/03/25 12:30:07;;;;;;;21.55;15.20;;;;;;;;;;5072241;28;20028;-54
2022/03/25 12:32:35;;;;;;;18.42;14.38;;;;;;;;;;5072198;28;20115;-56
2022/03/25 12:35:17;;;;;;;15.60;14.20;;;;;;;;;;5066915;28;20090;-56
2022/03/25 12:38:07;;;;;;;14.48;13.38;;;;;;;;;;5075636;28;20466;-55
2022/03/25 12:40:34;;;;;;;16.27;14.65;;;;;;;;;;5074939;28;20041;-57
2022/03/25 12:43:05;;;;;;;18.75;17.27;;;;;;;;;;5066706;28;20043;-55
2022/03/25 12:45:34;;;;;;;18.23;16.85;;;;;;;;;;5071018;28;20047;-55
2022/03/25 12:48:15;;;;;;;16.65;15.55;;;;;;;;;;5071250;28;20065;-57
2022/03/25 12:50:43;;;;;;;15.70;14.40;;;;;;;;;;5073689;28;20165;-56
2022/03/25 12:53:08;;;;;;;16.70;15.52;;;;;;;;;;5069461;28;20036;-54
2022/03/25 12:55:34;;;;;;;16.35;14.95;;;;;;;;;;5069717;28;20036;-57
2022/03/25 12:58:11;;;;;;;15.38;14.15;;;;;;;;;;5065215;28;20549;-57
2022/03/25 13:00:57;;;;;;;17.27;15.85;;;;;;;;;;5070390;28;20604;-56
2022/03/25 13:03:23;;;;;;;17.42;15.80;;;;;;;;;;5067178;28;20051;-57
2022/03/25 13:05:50;;;;;;;17.65;16.17;;;;;;;;;;5062008;28;20052;-57
2022/03/25 13:08:15;;;;;;;18.52;16.80;;;;;;;;;;5069221;28;20029;-56
2022/03/25 13:10:42;;;;;;;16.40;15.20;;;;;;;;;;5069969;28;20035;-55
2022/03/25 13:13:10;;;;;;;15.52;14.27;;;;;;;;;;5066683;28;20365;-56
2022/03/25 13:15:41;;;;;;;19.67;18.25;;;;;;;;;;5067731;28;20089;-52
2022/03/25 13:18:12;;;;;;;15.70;14.50;;;;;;;;;;5071779;28;20120;-54
2022/03/25 13:20:40;;;;;;;16.90;15.52;;;;;;;;;;5069261;28;20376;-54
2022/03/25 13:23:20;;;;;;;14.82;13.82;;;;;;;;;;5072270;28;20059;-54
2022/03/25 13:25:56;;;;;;;17.98;15.80;;;;;;;;;;5072789;28;20454;-55
2022/03/25 13:28:21;;;;;;;20.10;18.73;;;;;;;;;;5071418;28;20136;-53
2022/03/25 13:30:48;;;;;;;16.98;15.77;;;;;;;;;;5074544;28;20629;-55
2022/03/25 13:33:22;;;;;;;23.00;21.08;;;;;;;;;;5066875;28;20449;-50
2022/03/25 13:35:51;;;;;;;21.38;19.67;;;;;;;;;;5070021;28;20033;-54
2022/03/25 13:38:21;;;;;;;23.40;21.52;;;;;;;;;;5067335;28;20036;-54
2022/03/25 13:40:54;;;;;;;;;;;;;;;;;;5070058;28;20031;-55
2022/03/25 13:43:32;;;;;;;14.38;13.35;;;;;;;;;;5067805;28;20301;-54
2022/03/25 13:46:01;;;;;;;19.80;18.10;;;;;;;;;;5068981;28;20044;-55
2022/03/25 13:48:43;;;;;;;20.42;18.83;;;;;;;;;;5069942;28;20629;-56
2022/03/25 13:51:29;;;;;;;21.60;19.80;;;;;;;;;;5067144;28;20102;-54
2022/03/25 13:54:05;;;;;;;22.13;20.63;;;;;;;;;;5070138;28;20028;-55
2022/03/25 13:56:51;;;;;;;21.67;19.95;;;;;;;;;;5074159;28;20028;-56
2022/03/25 13:59:36;;;;;;;21.30;19.75;;;;;;;;;;5073323;28;20103;-56
2022/03/25 14:02:30;;;;;;;18.95;17.52;;;;;;;;;;5057536;28;20032;-55
2022/03/25 14:04:56;;;;;;;17.30;16.00;;;;;;;;;;5069421;28;20036;-55
2022/03/25 14:07:22;;;;;;;20.30;18.75;;;;;;;;;;5066738;28;20031;-54
2022/03/25 14:09:55;;;;;;;19.10;17.80;;;;;;;;;;5065576;28;20079;-54
2022/03/25 14:12:23;;;;;;;20.48;18.80;;;;;;;;;;5068289;28;20032;-55
2022/03/25 14:14:57;;;;;;;23.10;21.10;;;;;;;;;;5064976;28;20056;-55
2022/03/25 14:17:28;;;;;;;19.10;17.83;;;;;;;;;;5070959;28;20032;-56
2022/03/25 14:19:59;;;;;;;;;;;;;;;;;;5075428;28;20064;-59
2022/03/25 14:22:24;;;;;;;16.40;15.20;;;;;;;;;;5072244;28;19922;-55
2022/03/25 14:24:50;;;;;;;20.40;18.92;;;;;;;;;;5065493;28;20040;-56
2022/03/25 14:27:15;;;;;;;20.58;19.17;;;;;;;;;;5064870;28;20140;-55
2022/03/25 14:29:41;;;;;;;21.35;19.90;;;;;;;;;;5075210;28;20032;-54
2022/03/25 14:32:10;;;;;;;22.67;21.10;;;;;;;;;;5070177;28;20193;-55
2022/03/25 14:34:37;;;;;;;23.05;21.55;;;;;;;;;;5070339;28;20032;-56
2022/03/25 14:37:03;;;;;;;23.25;21.40;;;;;;;;;;5076630;28;20040;-56
2022/03/25 14:39:28;;;;;;;26.38;24.30;;;;;;;;;;5074625;28;20562;-56